sensor_id;sensor_type;location;lat;lon;timestamp;temperature;humidity
61641;HTU21D;62201;49.966;8.342;2023-08-12T00:00:40;20.79;118.99
61641;HTU21D;62201;49.966;8.342;2023-08-12T00:03:06;20.83;118.99
61641;HTU21D;62201;49.966;8.342;2023-08-12T00:05:31;20.87;118.99
61641;HTU21D;62201;49.966;8.342;2023-08-12T00:07:56;20.88;118.99
61641;HTU21D;62201;49.966;8.342;2023-08-12T00:10:22;20.88;118.99
61641;HTU21D;62201;49.966;8.342;2023-08-12T00:12:47;20.87;118.99
61641;HTU21D;62201;49.966;8.342;2023-08-12T00:15:13;20.86;118.99
61641;HTU21D;62201;49.966;8.342;2023-08-12T00:17:38;20.85;118.99
61641;HTU21D;62201;49.966;8.342;2023-08-12T00:20:06;20.83;118.99
61641;HTU21D;62201;49.966;8.342;2023-08-12T00:22:33;20.76;118.99
61641;HTU21D;62201;49.966;8.342;2023-08-12T00:24:59;20.71;118.99
61641;HTU21D;62201;49.966;8.342;2023-08-12T00:27:24;20.66;118.99
61641;HTU21D;62201;49.966;8.342;2023-08-12T00:29:50;20.66;118.99
61641;HTU21D;62201;49.966;8.342;2023-08-12T00:32:15;20.71;118.99
61641;HTU21D;62201;49.966;8.342;2023-08-12T00:34:40;20.71;118.99
61641;HTU21D;62201;49.966;8.342;2023-08-12T00:37:06;20.71;118.99
61641;HTU21D;62201;49.966;8.342;2023-08-12T00:39:31;20.73;118.99
61641;HTU21D;62201;49.966;8.342;2023-08-12T00:41:56;20.76;118.99
61641;HTU21D;62201;49.966;8.342;2023-08-12T00:44:22;20.81;118.99
61641;HTU21D;62201;49.966;8.342;2023-08-12T00:46:47;20.87;118.99
61641;HTU21D;62201;49.966;8.342;2023-08-12T00:49:13;20.89;118.99
61641;HTU21D;62201;49.966;8.342;2023-08-12T00:51:41;20.89;118.99
61641;HTU21D;62201;49.966;8.342;2023-08-12T00:54:08;20.87;118.99
61641;HTU21D;62201;49.966;8.342;2023-08-12T00:56:34;20.89;118.99
61641;HTU21D;62201;49.966;8.342;2023-08-12T00:59:02;20.89;118.99
61641;HTU21D;62201;49.966;8.342;2023-08-12T01:01:30;20.90;118.99
61641;HTU21D;62201;49.966;8.342;2023-08-12T01:03:56;20.89;118.99
61641;HTU21D;62201;49.966;8.342;2023-08-12T01:06:21;20.88;118.99
61641;HTU21D;62201;49.966;8.342;2023-08-12T01:08:47;20.86;118.99
61641;HTU21D;62201;49.966;8.342;2023-08-12T01:13:55;20.85;118.99
61641;HTU21D;62201;49.966;8.342;2023-08-12T01:16:25;20.86;118.99
61641;HTU21D;62201;49.966;8.342;2023-08-12T01:18:52;20.84;118.99
61641;HTU21D;62201;49.966;8.342;2023-08-12T01:21:21;20.84;118.99
61641;HTU21D;62201;49.966;8.342;2023-08-12T01:23:47;20.85;118.99
61641;HTU21D;62201;49.966;8.342;2023-08-12T01:26:12;20.86;118.99
61641;HTU21D;62201;49.966;8.342;2023-08-12T01:28:38;20.89;118.99
61641;HTU21D;62201;49.966;8.342;2023-08-12T01:31:25;20.91;118.99
61641;HTU21D;62201;49.966;8.342;2023-08-12T01:33:59;20.92;118.99
61641;HTU21D;62201;49.966;8.342;2023-08-12T01:36:27;20.92;118.99
61641;HTU21D;62201;49.966;8.342;2023-08-12T01:38:55;20.93;118.99
61641;HTU21D;62201;49.966;8.342;2023-08-12T01:41:23;20.92;118.99
61641;HTU21D;62201;49.966;8.342;2023-08-12T01:43:48;20.93;118.99
61641;HTU21D;62201;49.966;8.342;2023-08-12T01:46:14;20.93;118.99
61641;HTU21D;62201;49.966;8.342;2023-08-12T01:48:39;20.95;118.99
61641;HTU21D;62201;49.966;8.342;2023-08-12T01:51:04;21.00;118.99
61641;HTU21D;62201;49.966;8.342;2023-08-12T01:53:30;21.00;118.99
61641;HTU21D;62201;49.966;8.342;2023-08-12T01:55:55;21.01;118.99
61641;HTU21D;62201;49.966;8.342;2023-08-12T01:58:21;21.02;118.99
61641;HTU21D;62201;49.966;8.342;2023-08-12T02:00:46;21.02;118.99
61641;HTU21D;62201;49.966;8.342;2023-08-12T02:03:11;20.99;118.99
61641;HTU21D;62201;49.966;8.342;2023-08-12T02:05:37;20.98;118.99
61641;HTU21D;62201;49.966;8.342;2023-08-12T02:08:05;21.04;118.99
61641;HTU21D;62201;49.966;8.342;2023-08-12T02:10:31;21.10;118.99
61641;HTU21D;62201;49.966;8.342;2023-08-12T02:12:56;21.11;118.99
61641;HTU21D;62201;49.966;8.342;2023-08-12T02:15:22;21.10;118.99
61641;HTU21D;62201;49.966;8.342;2023-08-12T02:17:47;21.06;118.99
61641;HTU21D;62201;49.966;8.342;2023-08-12T02:20:12;21.02;118.99
61641;HTU21D;62201;49.966;8.342;2023-08-12T02:22:38;21.04;118.99
61641;HTU21D;62201;49.966;8.342;2023-08-12T02:25:03;20.98;118.99
61641;HTU21D;62201;49.966;8.342;2023-08-12T02:27:29;20.88;118.99
61641;HTU21D;62201;49.966;8.342;2023-08-12T02:29:54;20.81;118.99
61641;HTU21D;62201;49.966;8.342;2023-08-12T02:32:20;20.75;118.99
61641;HTU21D;62201;49.966;8.342;2023-08-12T02:34:45;20.70;118.99
61641;HTU21D;62201;49.966;8.342;2023-08-12T02:37:10;20.64;118.99
61641;HTU21D;62201;49.966;8.342;2023-08-12T02:39:37;20.59;118.99
61641;HTU21D;62201;49.966;8.342;2023-08-12T02:42:03;20.54;118.99
61641;HTU21D;62201;49.966;8.342;2023-08-12T02:44:28;20.54;118.99
61641;HTU21D;62201;49.966;8.342;2023-08-12T02:46:54;20.49;118.99
61641;HTU21D;62201;49.966;8.342;2023-08-12T02:49:19;20.47;118.99
61641;HTU21D;62201;49.966;8.342;2023-08-12T02:51:44;20.44;118.99
61641;HTU21D;62201;49.966;8.342;2023-08-12T02:54:10;20.41;118.99
61641;HTU21D;62201;49.966;8.342;2023-08-12T02:56:35;20.36;118.99
61641;HTU21D;62201;49.966;8.342;2023-08-12T02:59:00;20.31;118.99
61641;HTU21D;62201;49.966;8.342;2023-08-12T03:01:26;20.28;118.99
61641;HTU21D;62201;49.966;8.342;2023-08-12T03:03:52;20.25;118.99
61641;HTU21D;62201;49.966;8.342;2023-08-12T03:06:18;20.25;118.99
61641;HTU21D;62201;49.966;8.342;2023-08-12T03:08:43;20.24;118.99
61641;HTU21D;62201;49.966;8.342;2023-08-12T03:11:08;20.21;118.99
61641;HTU21D;62201;49.966;8.342;2023-08-12T03:13:34;20.16;118.99
61641;HTU21D;62201;49.966;8.342;2023-08-12T03:15:59;20.13;118.99
61641;HTU21D;62201;49.966;8.342;2023-08-12T03:18:25;20.12;118.99
61641;HTU21D;62201;49.966;8.342;2023-08-12T03:20:50;20.18;118.99
61641;HTU21D;62201;49.966;8.342;2023-08-12T03:23:16;20.19;118.99
61641;HTU21D;62201;49.966;8.342;2023-08-12T03:25:41;20.16;118.99
61641;HTU21D;62201;49.966;8.342;2023-08-12T03:28:06;20.17;118.99
61641;HTU21D;62201;49.966;8.342;2023-08-12T03:30:32;20.16;118.99
61641;HTU21D;62201;49.966;8.342;2023-08-12T03:32:57;20.16;118.99
61641;HTU21D;62201;49.966;8.342;2023-08-12T03:35:22;20.15;118.99
61641;HTU21D;62201;49.966;8.342;2023-08-12T03:37:48;20.12;118.99
61641;HTU21D;62201;49.966;8.342;2023-08-12T03:40:13;20.12;118.99
61641;HTU21D;62201;49.966;8.342;2023-08-12T03:42:39;20.12;118.99
61641;HTU21D;62201;49.966;8.342;2023-08-12T03:45:05;20.12;118.99
61641;HTU21D;62201;49.966;8.342;2023-08-12T03:47:30;20.15;118.99
61641;HTU21D;62201;49.966;8.342;2023-08-12T03:49:56;20.15;118.99
61641;HTU21D;62201;49.966;8.342;2023-08-12T03:52:21;20.16;118.99
61641;HTU21D;62201;49.966;8.342;2023-08-12T03:54:47;20.17;118.99
61641;HTU21D;62201;49.966;8.342;2023-08-12T03:57:12;20.20;118.99
61641;HTU21D;62201;49.966;8.342;2023-08-12T03:59:38;20.25;118.99
61641;HTU21D;62201;49.966;8.342;2023-08-12T04:02:03;20.24;118.99
61641;HTU21D;62201;49.966;8.342;2023-08-12T04:04:29;20.17;118.99
61641;HTU21D;62201;49.966;8.342;2023-08-12T04:06:54;20.12;118.99
61641;HTU21D;62201;49.966;8.342;2023-08-12T04:09:20;20.10;118.99
61641;HTU21D;62201;49.966;8.342;2023-08-12T04:11:46;20.07;118.99
61641;HTU21D;62201;49.966;8.342;2023-08-12T04:14:12;20.07;118.99
61641;HTU21D;62201;49.966;8.342;2023-08-12T04:16:38;20.06;118.99
61641;HTU21D;62201;49.966;8.342;2023-08-12T04:19:04;20.03;118.99
61641;HTU21D;62201;49.966;8.342;2023-08-12T04:21:29;20.05;118.99
61641;HTU21D;62201;49.966;8.342;2023-08-12T04:23:54;20.06;118.99
61641;HTU21D;62201;49.966;8.342;2023-08-12T04:26:20;20.09;118.99
61641;HTU21D;62201;49.966;8.342;2023-08-12T04:28:45;20.10;118.99
61641;HTU21D;62201;49.966;8.342;2023-08-12T04:31:11;20.13;118.99
61641;HTU21D;62201;49.966;8.342;2023-08-12T04:33:36;20.15;118.99
61641;HTU21D;62201;49.966;8.342;2023-08-12T04:36:01;20.18;118.99
61641;HTU21D;62201;49.966;8.342;2023-08-12T04:38:27;20.21;118.99
61641;HTU21D;62201;49.966;8.342;2023-08-12T04:40:53;20.22;118.99
61641;HTU21D;62201;49.966;8.342;2023-08-12T04:43:19;20.19;118.99
61641;HTU21D;62201;49.966;8.342;2023-08-12T04:45:45;20.16;118.99
61641;HTU21D;62201;49.966;8.342;2023-08-12T04:48:11;20.13;118.99
61641;HTU21D;62201;49.966;8.342;2023-08-12T04:50:37;20.10;118.99
61641;HTU21D;62201;49.966;8.342;2023-08-12T04:53:04;20.11;118.99
61641;HTU21D;62201;49.966;8.342;2023-08-12T04:55:30;20.05;118.99
61641;HTU21D;62201;49.966;8.342;2023-08-12T04:57:56;20.02;118.99
61641;HTU21D;62201;49.966;8.342;2023-08-12T05:00:22;20.02;118.99
61641;HTU21D;62201;49.966;8.342;2023-08-12T05:02:48;20.02;118.99
61641;HTU21D;62201;49.966;8.342;2023-08-12T05:05:14;20.02;118.99
61641;HTU21D;62201;49.966;8.342;2023-08-12T05:07:39;20.02;118.99
61641;HTU21D;62201;49.966;8.342;2023-08-12T05:10:05;20.03;118.99
61641;HTU21D;62201;49.966;8.342;2023-08-12T05:12:31;20.06;118.99
61641;HTU21D;62201;49.966;8.342;2023-08-12T05:14:56;20.03;118.99
61641;HTU21D;62201;49.966;8.342;2023-08-12T05:17:22;20.01;118.99
61641;HTU21D;62201;49.966;8.342;2023-08-12T05:19:47;20.01;118.99
61641;HTU21D;62201;49.966;8.342;2023-08-12T05:22:13;20.00;118.99
61641;HTU21D;62201;49.966;8.342;2023-08-12T05:24:38;20.07;118.99
61641;HTU21D;62201;49.966;8.342;2023-08-12T05:27:03;20.11;118.99
61641;HTU21D;62201;49.966;8.342;2023-08-12T05:29:32;20.15;118.99
61641;HTU21D;62201;49.966;8.342;2023-08-12T05:31:57;20.18;118.99
61641;HTU21D;62201;49.966;8.342;2023-08-12T05:34:22;20.22;118.99
61641;HTU21D;62201;49.966;8.342;2023-08-12T05:36:48;20.22;118.99
61641;HTU21D;62201;49.966;8.342;2023-08-12T05:39:13;20.25;118.99
61641;HTU21D;62201;49.966;8.342;2023-08-12T05:41:40;20.25;118.99
61641;HTU21D;62201;49.966;8.342;2023-08-12T05:44:06;20.29;118.99
61641;HTU21D;62201;49.966;8.342;2023-08-12T05:46:31;20.32;118.99
61641;HTU21D;62201;49.966;8.342;2023-08-12T05:48:57;20.32;118.99
61641;HTU21D;62201;49.966;8.342;2023-08-12T05:51:22;20.32;118.99
61641;HTU21D;62201;49.966;8.342;2023-08-12T05:53:48;20.41;118.99
61641;HTU21D;62201;49.966;8.342;2023-08-12T05:56:13;20.47;118.99
61641;HTU21D;62201;49.966;8.342;2023-08-12T05:58:39;20.53;118.99
61641;HTU21D;62201;49.966;8.342;2023-08-12T06:01:04;20.58;118.99
61641;HTU21D;62201;49.966;8.342;2023-08-12T06:03:29;20.62;118.99
61641;HTU21D;62201;49.966;8.342;2023-08-12T06:05:55;20.71;118.99
61641;HTU21D;62201;49.966;8.342;2023-08-12T06:08:20;20.78;118.99
61641;HTU21D;62201;49.966;8.342;2023-08-12T06:10:46;20.84;118.99
61641;HTU21D;62201;49.966;8.342;2023-08-12T06:13:11;20.86;118.99
61641;HTU21D;62201;49.966;8.342;2023-08-12T06:15:36;20.86;118.99
61641;HTU21D;62201;49.966;8.342;2023-08-12T06:18:02;20.89;118.99
61641;HTU21D;62201;49.966;8.342;2023-08-12T06:20:27;20.92;118.99
61641;HTU21D;62201;49.966;8.342;2023-08-12T06:22:53;20.99;118.99
61641;HTU21D;62201;49.966;8.342;2023-08-12T06:25:19;21.11;118.99
61641;HTU21D;62201;49.966;8.342;2023-08-12T06:27:45;21.19;118.99
61641;HTU21D;62201;49.966;8.342;2023-08-12T06:30:12;21.27;118.99
61641;HTU21D;62201;49.966;8.342;2023-08-12T06:32:37;21.36;118.99
61641;HTU21D;62201;49.966;8.342;2023-08-12T06:35:03;21.58;118.99
61641;HTU21D;62201;49.966;8.342;2023-08-12T06:37:29;21.85;118.99
61641;HTU21D;62201;49.966;8.342;2023-08-12T06:39:54;22.06;118.99
61641;HTU21D;62201;49.966;8.342;2023-08-12T06:42:20;22.37;118.99
61641;HTU21D;62201;49.966;8.342;2023-08-12T06:44:49;22.47;118.99
61641;HTU21D;62201;49.966;8.342;2023-08-12T06:47:15;22.48;118.99
61641;HTU21D;62201;49.966;8.342;2023-08-12T06:49:40;22.39;118.99
61641;HTU21D;62201;49.966;8.342;2023-08-12T06:52:05;22.48;118.99
61641;HTU21D;62201;49.966;8.342;2023-08-12T06:54:31;22.54;118.99
61641;HTU21D;62201;49.966;8.342;2023-08-12T06:56:56;22.77;118.99
61641;HTU21D;62201;49.966;8.342;2023-08-12T06:59:22;22.86;118.99
61641;HTU21D;62201;49.966;8.342;2023-08-12T07:01:47;22.91;118.99
61641;HTU21D;62201;49.966;8.342;2023-08-12T07:04:12;22.97;118.99
61641;HTU21D;62201;49.966;8.342;2023-08-12T07:06:38;23.09;118.99
61641;HTU21D;62201;49.966;8.342;2023-08-12T07:09:03;23.08;118.99
61641;HTU21D;62201;49.966;8.342;2023-08-12T07:11:29;22.97;118.99
61641;HTU21D;62201;49.966;8.342;2023-08-12T07:13:54;22.98;118.99
61641;HTU21D;62201;49.966;8.342;2023-08-12T07:16:20;23.14;118.99
61641;HTU21D;62201;49.966;8.342;2023-08-12T07:18:45;23.16;118.99
61641;HTU21D;62201;49.966;8.342;2023-08-12T07:21:10;23.11;118.99
61641;HTU21D;62201;49.966;8.342;2023-08-12T07:23:36;23.14;118.99
61641;HTU21D;62201;49.966;8.342;2023-08-12T07:26:01;23.10;118.99
61641;HTU21D;62201;49.966;8.342;2023-08-12T07:28:26;23.01;118.99
61641;HTU21D;62201;49.966;8.342;2023-08-12T07:30:52;23.00;118.99
61641;HTU21D;62201;49.966;8.342;2023-08-12T07:33:19;23.21;118.99
61641;HTU21D;62201;49.966;8.342;2023-08-12T07:35:45;23.31;118.99
61641;HTU21D;62201;49.966;8.342;2023-08-12T07:38:10;23.39;118.99
61641;HTU21D;62201;49.966;8.342;2023-08-12T07:40:35;23.32;118.99
61641;HTU21D;62201;49.966;8.342;2023-08-12T07:43:01;23.24;118.99
61641;HTU21D;62201;49.966;8.342;2023-08-12T07:45:26;23.36;118.99
61641;HTU21D;62201;49.966;8.342;2023-08-12T07:47:51;23.61;118.99
61641;HTU21D;62201;49.966;8.342;2023-08-12T07:50:17;24.03;118.99
61641;HTU21D;62201;49.966;8.342;2023-08-12T07:52:43;24.25;118.99
61641;HTU21D;62201;49.966;8.342;2023-08-12T07:55:08;24.24;118.99
61641;HTU21D;62201;49.966;8.342;2023-08-12T07:57:34;23.98;118.99
61641;HTU21D;62201;49.966;8.342;2023-08-12T07:59:59;23.86;118.99
61641;HTU21D;62201;49.966;8.342;2023-08-12T08:02:25;23.91;118.99
61641;HTU21D;62201;49.966;8.342;2023-08-12T08:04:50;24.05;118.99
61641;HTU21D;62201;49.966;8.342;2023-08-12T08:07:16;24.03;118.99
61641;HTU21D;62201;49.966;8.342;2023-08-12T08:09:43;23.96;118.99
61641;HTU21D;62201;49.966;8.342;2023-08-12T08:12:09;24.04;118.99
61641;HTU21D;62201;49.966;8.342;2023-08-12T08:14:35;24.14;118.99
61641;HTU21D;62201;49.966;8.342;2023-08-12T08:17:01;24.38;118.99
61641;HTU21D;62201;49.966;8.342;2023-08-12T08:19:27;24.56;118.99
61641;HTU21D;62201;49.966;8.342;2023-08-12T08:21:52;24.64;118.99
61641;HTU21D;62201;49.966;8.342;2023-08-12T08:24:18;24.79;118.99
61641;HTU21D;62201;49.966;8.342;2023-08-12T08:26:43;25.21;117.79
61641;HTU21D;62201;49.966;8.342;2023-08-12T08:29:11;25.31;118.81
61641;HTU21D;62201;49.966;8.342;2023-08-12T08:31:36;25.38;117.89
61641;HTU21D;62201;49.966;8.342;2023-08-12T08:34:01;26.03;115.22
61641;HTU21D;62201;49.966;8.342;2023-08-12T08:36:27;26.43;109.14
61641;HTU21D;62201;49.966;8.342;2023-08-12T08:38:52;26.61;111.01
61641;HTU21D;62201;49.966;8.342;2023-08-12T08:41:18;26.54;111.50
61641;HTU21D;62201;49.966;8.342;2023-08-12T08:43:47;26.63;109.61
61641;HTU21D;62201;49.966;8.342;2023-08-12T08:46:16;27.32;105.30
61641;HTU21D;62201;49.966;8.342;2023-08-12T08:48:42;27.22;106.33
61641;HTU21D;62201;49.966;8.342;2023-08-12T08:51:09;26.77;100.22
61641;HTU21D;62201;49.966;8.342;2023-08-12T08:53:39;26.35;107.48
61641;HTU21D;62201;49.966;8.342;2023-08-12T08:56:06;26.16;105.15
61641;HTU21D;62201;49.966;8.342;2023-08-12T08:58:32;26.07;107.75
61641;HTU21D;62201;49.966;8.342;2023-08-12T09:00:57;26.11;108.49
61641;HTU21D;62201;49.966;8.342;2023-08-12T09:03:23;26.19;105.85
61641;HTU21D;62201;49.966;8.342;2023-08-12T09:05:50;25.82;107.79
61641;HTU21D;62201;49.966;8.342;2023-08-12T09:08:16;26.43;106.57
61641;HTU21D;62201;49.966;8.342;2023-08-12T09:10:42;26.83;99.90
61641;HTU21D;62201;49.966;8.342;2023-08-12T09:13:08;27.15;104.91
61641;HTU21D;62201;49.966;8.342;2023-08-12T09:15:36;27.14;104.79
61641;HTU21D;62201;49.966;8.342;2023-08-12T09:18:04;27.47;101.45
61641;HTU21D;62201;49.966;8.342;2023-08-12T09:20:30;28.10;99.14
61641;HTU21D;62201;49.966;8.342;2023-08-12T09:22:57;28.97;86.99
61641;HTU21D;62201;49.966;8.342;2023-08-12T09:25:24;29.00;83.43
61641;HTU21D;62201;49.966;8.342;2023-08-12T09:27:49;29.15;85.26
61641;HTU21D;62201;49.966;8.342;2023-08-12T09:30:15;29.31;81.32
61641;HTU21D;62201;49.966;8.342;2023-08-12T09:32:40;28.78;83.68
61641;HTU21D;62201;49.966;8.342;2023-08-12T09:35:15;28.79;83.39
61641;HTU21D;62201;49.966;8.342;2023-08-12T09:37:41;29.83;83.00
61641;HTU21D;62201;49.966;8.342;2023-08-12T09:40:07;29.97;79.33
61641;HTU21D;62201;49.966;8.342;2023-08-12T09:42:33;30.52;71.50
61641;HTU21D;62201;49.966;8.342;2023-08-12T09:44:59;30.51;74.99
61641;HTU21D;62201;49.966;8.342;2023-08-12T09:47:25;29.63;75.89
61641;HTU21D;62201;49.966;8.342;2023-08-12T09:49:50;28.98;81.81
61641;HTU21D;62201;49.966;8.342;2023-08-12T09:52:16;28.21;86.96
61641;HTU21D;62201;49.966;8.342;2023-08-12T09:54:41;27.60;91.53
61641;HTU21D;62201;49.966;8.342;2023-08-12T09:57:08;26.91;99.46
61641;HTU21D;62201;49.966;8.342;2023-08-12T09:59:37;25.72;113.45
61641;HTU21D;62201;49.966;8.342;2023-08-12T10:02:04;24.92;118.99
61641;HTU21D;62201;49.966;8.342;2023-08-12T10:04:37;24.15;118.99
61641;HTU21D;62201;49.966;8.342;2023-08-12T10:07:04;23.50;118.99
61641;HTU21D;62201;49.966;8.342;2023-08-12T10:09:32;23.11;118.99
61641;HTU21D;62201;49.966;8.342;2023-08-12T10:11:58;22.70;118.99
61641;HTU21D;62201;49.966;8.342;2023-08-12T10:14:24;22.44;118.99
61641;HTU21D;62201;49.966;8.342;2023-08-12T10:16:50;22.28;118.99
61641;HTU21D;62201;49.966;8.342;2023-08-12T10:19:17;22.13;118.99
61641;HTU21D;62201;49.966;8.342;2023-08-12T10:21:44;22.10;118.99
61641;HTU21D;62201;49.966;8.342;2023-08-12T10:24:10;22.02;118.99
61641;HTU21D;62201;49.966;8.342;2023-08-12T10:26:37;21.95;118.99
61641;HTU21D;62201;49.966;8.342;2023-08-12T10:29:03;21.89;118.99
61641;HTU21D;62201;49.966;8.342;2023-08-12T10:31:29;21.83;118.99
61641;HTU21D;62201;49.966;8.342;2023-08-12T10:33:56;21.80;118.99
61641;HTU21D;62201;49.966;8.342;2023-08-12T10:36:22;21.77;118.99
61641;HTU21D;62201;49.966;8.342;2023-08-12T10:38:47;21.73;118.99
61641;HTU21D;62201;49.966;8.342;2023-08-12T10:41:35;21.72;118.99
61641;HTU21D;62201;49.966;8.342;2023-08-12T10:44:05;21.67;118.99
61641;HTU21D;62201;49.966;8.342;2023-08-12T10:46:35;21.61;118.99
61641;HTU21D;62201;49.966;8.342;2023-08-12T10:49:06;21.58;118.99
61641;HTU21D;62201;49.966;8.342;2023-08-12T10:52:00;21.52;118.99
61641;HTU21D;62201;49.966;8.342;2023-08-12T10:54:26;21.58;118.99
61641;HTU21D;62201;49.966;8.342;2023-08-12T10:57:08;21.61;118.99
61641;HTU21D;62201;49.966;8.342;2023-08-12T11:04:42;21.89;118.99
61641;HTU21D;62201;49.966;8.342;2023-08-12T11:07:23;21.94;118.99
61641;HTU21D;62201;49.966;8.342;2023-08-12T11:09:52;22.01;118.99
61641;HTU21D;62201;49.966;8.342;2023-08-12T11:12:28;22.16;118.99
61641;HTU21D;62201;49.966;8.342;2023-08-12T11:14:54;22.70;118.99
61641;HTU21D;62201;49.966;8.342;2023-08-12T11:17:20;23.28;118.99
61641;HTU21D;62201;49.966;8.342;2023-08-12T11:19:52;23.82;118.99
61641;HTU21D;62201;49.966;8.342;2023-08-12T11:22:17;23.60;118.99
61641;HTU21D;62201;49.966;8.342;2023-08-12T11:24:43;23.56;118.99
61641;HTU21D;62201;49.966;8.342;2023-08-12T11:27:09;23.54;118.99
61641;HTU21D;62201;49.966;8.342;2023-08-12T11:29:37;23.45;118.99
61641;HTU21D;62201;49.966;8.342;2023-08-12T11:32:03;23.36;118.99
61641;HTU21D;62201;49.966;8.342;2023-08-12T11:34:30;23.32;118.99
61641;HTU21D;62201;49.966;8.342;2023-08-12T11:36:56;23.30;118.99
61641;HTU21D;62201;49.966;8.342;2023-08-12T11:39:22;23.28;118.99
61641;HTU21D;62201;49.966;8.342;2023-08-12T11:41:48;23.30;118.99
61641;HTU21D;62201;49.966;8.342;2023-08-12T11:44:15;23.24;118.99
61641;HTU21D;62201;49.966;8.342;2023-08-12T11:46:41;23.22;118.99
61641;HTU21D;62201;49.966;8.342;2023-08-12T11:49:06;23.22;118.99
61641;HTU21D;62201;49.966;8.342;2023-08-12T11:51:33;23.36;118.99
61641;HTU21D;62201;49.966;8.342;2023-08-12T11:53:59;23.40;118.99
61641;HTU21D;62201;49.966;8.342;2023-08-12T11:56:24;23.31;118.99
61641;HTU21D;62201;49.966;8.342;2023-08-12T11:58:52;23.28;118.99
61641;HTU21D;62201;49.966;8.342;2023-08-12T12:01:20;23.41;118.99
61641;HTU21D;62201;49.966;8.342;2023-08-12T12:03:51;23.47;118.99
61641;HTU21D;62201;49.966;8.342;2023-08-12T12:06:16;23.55;118.99
61641;HTU21D;62201;49.966;8.342;2023-08-12T12:08:44;23.55;118.99
61641;HTU21D;62201;49.966;8.342;2023-08-12T12:11:09;23.55;118.99
61641;HTU21D;62201;49.966;8.342;2023-08-12T12:13:35;23.47;118.99
61641;HTU21D;62201;49.966;8.342;2023-08-12T12:16:01;23.51;118.99
61641;HTU21D;62201;49.966;8.342;2023-08-12T12:18:26;23.75;118.99
61641;HTU21D;62201;49.966;8.342;2023-08-12T12:23:21;24.34;118.99
61641;HTU21D;62201;49.966;8.342;2023-08-12T12:25:47;24.55;118.99
61641;HTU21D;62201;49.966;8.342;2023-08-12T12:28:12;25.36;118.99
61641;HTU21D;62201;49.966;8.342;2023-08-12T12:30:38;25.74;118.99
61641;HTU21D;62201;49.966;8.342;2023-08-12T12:33:03;25.92;118.99
61641;HTU21D;62201;49.966;8.342;2023-08-12T12:35:29;25.77;118.99
61641;HTU21D;62201;49.966;8.342;2023-08-12T12:37:54;25.57;118.99
61641;HTU21D;62201;49.966;8.342;2023-08-12T12:40:20;25.81;118.99
61641;HTU21D;62201;49.966;8.342;2023-08-12T12:42:45;25.82;118.99
61641;HTU21D;62201;49.966;8.342;2023-08-12T12:45:11;25.43;118.99
61641;HTU21D;62201;49.966;8.342;2023-08-12T12:47:36;25.23;118.99
61641;HTU21D;62201;49.966;8.342;2023-08-12T12:50:03;25.50;118.99
61641;HTU21D;62201;49.966;8.342;2023-08-12T12:52:28;26.22;118.99
61641;HTU21D;62201;49.966;8.342;2023-08-12T12:54:53;26.71;118.99
61641;HTU21D;62201;49.966;8.342;2023-08-12T12:57:19;27.17;118.99
61641;HTU21D;62201;49.966;8.342;2023-08-12T12:59:44;27.54;118.99
61641;HTU21D;62201;49.966;8.342;2023-08-12T13:02:09;27.93;118.99
61641;HTU21D;62201;49.966;8.342;2023-08-12T13:04:35;28.13;118.99
61641;HTU21D;62201;49.966;8.342;2023-08-12T13:07:00;27.98;113.12
61641;HTU21D;62201;49.966;8.342;2023-08-12T13:09:26;27.88;116.86
61641;HTU21D;62201;49.966;8.342;2023-08-12T13:11:51;27.89;101.31
61641;HTU21D;62201;49.966;8.342;2023-08-12T13:14:17;28.14;110.07
61641;HTU21D;62201;49.966;8.342;2023-08-12T13:16:46;28.17;98.37
61641;HTU21D;62201;49.966;8.342;2023-08-12T13:19:11;28.40;112.80
61641;HTU21D;62201;49.966;8.342;2023-08-12T13:21:36;28.61;98.10
61641;HTU21D;62201;49.966;8.342;2023-08-12T13:24:02;28.70;94.63
61641;HTU21D;62201;49.966;8.342;2023-08-12T13:26:29;28.71;109.39
61641;HTU21D;62201;49.966;8.342;2023-08-12T13:28:54;28.65;99.07
61641;HTU21D;62201;49.966;8.342;2023-08-12T13:31:19;28.20;104.59
61641;HTU21D;62201;49.966;8.342;2023-08-12T13:33:45;28.03;109.01
61641;HTU21D;62201;49.966;8.342;2023-08-12T13:36:11;27.80;111.33
61641;HTU21D;62201;49.966;8.342;2023-08-12T13:38:37;27.93;111.87
61641;HTU21D;62201;49.966;8.342;2023-08-12T13:41:02;27.83;111.05
61641;HTU21D;62201;49.966;8.342;2023-08-12T13:43:28;27.93;104.36
61641;HTU21D;62201;49.966;8.342;2023-08-12T13:45:53;28.11;110.78
61641;HTU21D;62201;49.966;8.342;2023-08-12T13:48:18;28.15;105.91
61641;HTU21D;62201;49.966;8.342;2023-08-12T13:50:44;28.23;102.38
61641;HTU21D;62201;49.966;8.342;2023-08-12T13:53:09;28.38;102.53
61641;HTU21D;62201;49.966;8.342;2023-08-12T13:55:34;28.39;101.22
61641;HTU21D;62201;49.966;8.342;2023-08-12T13:58:00;28.32;97.30
61641;HTU21D;62201;49.966;8.342;2023-08-12T14:00:25;28.45;96.21
61641;HTU21D;62201;49.966;8.342;2023-08-12T14:02:51;28.32;99.53
61641;HTU21D;62201;49.966;8.342;2023-08-12T14:05:16;27.82;98.43
61641;HTU21D;62201;49.966;8.342;2023-08-12T14:07:42;27.94;101.12
61641;HTU21D;62201;49.966;8.342;2023-08-12T14:10:07;28.03;100.03
61641;HTU21D;62201;49.966;8.342;2023-08-12T14:12:33;28.59;94.88
61641;HTU21D;62201;49.966;8.342;2023-08-12T14:14:59;29.07;94.76
61641;HTU21D;62201;49.966;8.342;2023-08-12T14:17:24;29.92;91.56
61641;HTU21D;62201;49.966;8.342;2023-08-12T14:19:51;30.12;90.66
61641;HTU21D;62201;49.966;8.342;2023-08-12T14:22:17;30.28;89.45
61641;HTU21D;62201;49.966;8.342;2023-08-12T14:24:43;30.25;85.06
61641;HTU21D;62201;49.966;8.342;2023-08-12T14:27:10;29.39;91.35
61641;HTU21D;62201;49.966;8.342;2023-08-12T14:29:35;29.43;89.76
61641;HTU21D;62201;49.966;8.342;2023-08-12T14:32:01;29.01;94.86
61641;HTU21D;62201;49.966;8.342;2023-08-12T14:34:26;28.86;94.13
61641;HTU21D;62201;49.966;8.342;2023-08-12T14:36:51;28.39;99.04
61641;HTU21D;62201;49.966;8.342;2023-08-12T14:39:17;27.89;101.09
61641;HTU21D;62201;49.966;8.342;2023-08-12T14:41:42;27.64;103.65
61641;HTU21D;62201;49.966;8.342;2023-08-12T14:44:07;27.60;102.87
61641;HTU21D;62201;49.966;8.342;2023-08-12T14:46:33;27.21;106.05
61641;HTU21D;62201;49.966;8.342;2023-08-12T14:49:00;26.93;109.30
61641;HTU21D;62201;49.966;8.342;2023-08-12T14:51:25;26.79;109.30
61641;HTU21D;62201;49.966;8.342;2023-08-12T14:53:51;26.75;110.36
61641;HTU21D;62201;49.966;8.342;2023-08-12T14:56:16;26.83;111.02
61641;HTU21D;62201;49.966;8.342;2023-08-12T14:58:42;26.73;112.27
61641;HTU21D;62201;49.966;8.342;2023-08-12T15:01:07;26.75;112.09
61641;HTU21D;62201;49.966;8.342;2023-08-12T15:03:32;26.60;113.30
61641;HTU21D;62201;49.966;8.342;2023-08-12T15:05:59;26.65;114.11